sensor_id;sensor_type;location;lat;lon;timestamp;pressure;altitude;pressure_sealevel;temperature;humidity
55032;BME280;40928;51.076;7.950;2023-01-29T00:01:28;98223.84;;;-6.13;100.00
55032;BME280;40928;51.076;7.950;2023-01-29T00:03:54;98225.94;;;-6.18;100.00
55032;BME280;40928;51.076;7.950;2023-01-29T00:06:20;98223.25;;;-6.17;100.00
55032;BME280;40928;51.076;7.950;2023-01-29T00:08:48;98219.91;;;-6.19;100.00
55032;BME280;40928;51.076;7.950;2023-01-29T00:11:14;98221.56;;;-6.18;100.00
55032;BME280;40928;51.076;7.950;2023-01-29T00:13:41;98222.59;;;-6.20;100.00
55032;BME280;40928;51.076;7.950;2023-01-29T00:16:07;98215.97;;;-6.24;100.00
55032;BME280;40928;51.076;7.950;2023-01-29T00:18:33;98220.28;;;-6.38;100.00
55032;BME280;40928;51.076;7.950;2023-01-29T00:21:01;98216.63;;;-6.48;100.00
55032;BME280;40928;51.076;7.950;2023-01-29T00:23:27;98210.50;;;-6.47;100.00
55032;BME280;40928;51.076;7.950;2023-01-29T00:25:52;98213.31;;;-6.50;100.00
55032;BME280;40928;51.076;7.950;2023-01-29T00:28:18;98205.28;;;-6.60;100.00
55032;BME280;40928;51.076;7.950;2023-01-29T00:30:43;98210.59;;;-6.62;100.00
55032;BME280;40928;51.076;7.950;2023-01-29T00:33:09;98206.63;;;-6.67;100.00
55032;BME280;40928;51.076;7.950;2023-01-29T00:35:38;98201.31;;;-6.66;100.00
55032;BME280;40928;51.076;7.950;2023-01-29T00:38:04;98203.63;;;-6.61;100.00
55032;BME280;40928;51.076;7.950;2023-01-29T00:40:30;98191.16;;;-6.56;100.00
55032;BME280;40928;51.076;7.950;2023-01-29T00:43:15;98184.22;;;-6.55;100.00
55032;BME280;40928;51.076;7.950;2023-01-29T00:45:59;98183.06;;;-6.51;100.00
55032;BME280;40928;51.076;7.950;2023-01-29T00:48:25;98184.72;;;-6.50;100.00
55032;BME280;40928;51.076;7.950;2023-01-29T00:50:50;98181.19;;;-6.49;100.00
55032;BME280;40928;51.076;7.950;2023-01-29T00:53:16;98177.44;;;-6.58;100.00
55032;BME280;40928;51.076;7.950;2023-01-29T00:55:43;98171.81;;;-6.65;100.00
55032;BME280;40928;51.076;7.950;2023-01-29T00:58:09;98173.69;;;-6.67;100.00
55032;BME280;40928;51.076;7.950;2023-01-29T01:00:34;98180.75;;;-6.69;100.00
55032;BME280;40928;51.076;7.950;2023-01-29T01:03:00;98177.00;;;-6.65;100.00
55032;BME280;40928;51.076;7.950;2023-01-29T01:05:32;98167.13;;;-6.73;100.00
55032;BME280;40928;51.076;7.950;2023-01-29T01:07:57;98161.94;;;-6.85;100.00
55032;BME280;40928;51.076;7.950;2023-01-29T01:10:26;98161.19;;;-6.88;100.00
55032;BME280;40928;51.076;7.950;2023-01-29T01:12:58;98157.66;;;-6.86;100.00
55032;BME280;40928;51.076;7.950;2023-01-29T01:15:27;98165.16;;;-6.82;100.00
55032;BME280;40928;51.076;7.950;2023-01-29T01:17:55;98159.72;;;-6.92;100.00
55032;BME280;40928;51.076;7.950;2023-01-29T01:20:22;98159.53;;;-6.89;100.00
55032;BME280;40928;51.076;7.950;2023-01-29T01:22:50;98167.41;;;-6.90;100.00
55032;BME280;40928;51.076;7.950;2023-01-29T01:25:17;98172.91;;;-6.95;100.00
55032;BME280;40928;51.076;7.950;2023-01-29T01:27:43;98173.63;;;-6.93;100.00
55032;BME280;40928;51.076;7.950;2023-01-29T01:30:12;98179.44;;;-6.89;100.00
55032;BME280;40928;51.076;7.950;2023-01-29T01:32:38;98180.31;;;-6.89;100.00
55032;BME280;40928;51.076;7.950;2023-01-29T01:35:05;98186.94;;;-6.84;100.00
55032;BME280;40928;51.076;7.950;2023-01-29T01:37:31;98182.78;;;-6.87;100.00
55032;BME280;40928;51.076;7.950;2023-01-29T01:39:58;98189.09;;;-6.91;100.00
55032;BME280;40928;51.076;7.950;2023-01-29T01:42:27;98201.66;;;-6.98;100.00
55032;BME280;40928;51.076;7.950;2023-01-29T01:45:02;98196.47;;;-6.98;100.00
55032;BME280;40928;51.076;7.950;2023-01-29T01:47:42;98192.94;;;-6.97;100.00
55032;BME280;40928;51.076;7.950;2023-01-29T01:50:15;98193.28;;;-6.89;100.00
55032;BME280;40928;51.076;7.950;2023-01-29T01:52:48;98188.84;;;-6.86;100.00
55032;BME280;40928;51.076;7.950;2023-01-29T01:55:19;98189.66;;;-6.86;100.00
55032;BME280;40928;51.076;7.950;2023-01-29T01:57:47;98188.19;;;-6.90;100.00
55032;BME280;40928;51.076;7.950;2023-01-29T02:00:17;98193.59;;;-6.93;100.00
55032;BME280;40928;51.076;7.950;2023-01-29T02:02:45;98189.41;;;-6.96;100.00
55032;BME280;40928;51.076;7.950;2023-01-29T02:05:31;98176.09;;;-7.04;100.00
55032;BME280;40928;51.076;7.950;2023-01-29T02:08:26;98159.97;;;-7.09;100.00
55032;BME280;40928;51.076;7.950;2023-01-29T02:11:12;98161.44;;;-7.05;100.00
55032;BME280;40928;51.076;7.950;2023-01-29T02:13:38;98160.34;;;-7.01;100.00
55032;BME280;40928;51.076;7.950;2023-01-29T02:16:04;98156.16;;;-7.04;100.00
55032;BME280;40928;51.076;7.950;2023-01-29T02:18:32;98155.72;;;-7.10;100.00
55032;BME280;40928;51.076;7.950;2023-01-29T02:21:19;98150.72;;;-7.13;100.00
55032;BME280;40928;51.076;7.950;2023-01-29T02:26:50;98144.59;;;-7.12;100.00
55032;BME280;40928;51.076;7.950;2023-01-29T02:40:51;98148.13;;;-7.13;100.00
55032;BME280;40928;51.076;7.950;2023-01-29T02:43:45;98148.78;;;-7.10;100.00
55032;BME280;40928;51.076;7.950;2023-01-29T02:46:34;98159.97;;;-7.09;100.00
55032;BME280;40928;51.076;7.950;2023-01-29T02:51:49;98168.75;;;-7.25;100.00
55032;BME280;40928;51.076;7.950;2023-01-29T02:54:17;98175.31;;;-7.19;100.00
55032;BME280;40928;51.076;7.950;2023-01-29T02:57:19;98171.47;;;-7.26;100.00
55032;BME280;40928;51.076;7.950;2023-01-29T02:59:57;98163.75;;;-7.28;100.00
55032;BME280;40928;51.076;7.950;2023-01-29T03:02:31;98168.00;;;-7.27;100.00
55032;BME280;40928;51.076;7.950;2023-01-29T03:05:01;98164.59;;;-7.27;100.00
55032;BME280;40928;51.076;7.950;2023-01-29T03:07:36;98168.88;;;-7.26;100.00
55032;BME280;40928;51.076;7.950;2023-01-29T03:10:22;98165.72;;;-7.31;100.00
55032;BME280;40928;51.076;7.950;2023-01-29T03:12:54;98166.84;;;-7.36;100.00
55032;BME280;40928;51.076;7.950;2023-01-29T03:15:29;98179.06;;;-7.38;100.00
55032;BME280;40928;51.076;7.950;2023-01-29T03:18:30;98176.69;;;-7.41;100.00
55032;BME280;40928;51.076;7.950;2023-01-29T03:21:06;98183.06;;;-7.46;100.00
55032;BME280;40928;51.076;7.950;2023-01-29T03:23:55;98187.56;;;-7.48;100.00
55032;BME280;40928;51.076;7.950;2023-01-29T03:26:42;98187.75;;;-7.52;100.00
55032;BME280;40928;51.076;7.950;2023-01-29T03:29:33;98192.53;;;-7.45;100.00
55032;BME280;40928;51.076;7.950;2023-01-29T03:32:20;98188.94;;;-7.43;100.00
55032;BME280;40928;51.076;7.950;2023-01-29T03:34:53;98190.84;;;-7.32;100.00
55032;BME280;40928;51.076;7.950;2023-01-29T03:37:32;98205.44;;;-7.16;100.00
55032;BME280;40928;51.076;7.950;2023-01-29T03:40:04;98205.59;;;-7.05;100.00
55032;BME280;40928;51.076;7.950;2023-01-29T03:42:42;98197.38;;;-6.99;100.00
55032;BME280;40928;51.076;7.950;2023-01-29T03:45:35;98195.63;;;-6.98;100.00
55032;BME280;40928;51.076;7.950;2023-01-29T03:53:38;98190.88;;;-6.92;100.00
55032;BME280;40928;51.076;7.950;2023-01-29T03:56:23;98183.41;;;-6.83;100.00
55032;BME280;40928;51.076;7.950;2023-01-29T03:59:01;98181.97;;;-6.75;100.00
55032;BME280;40928;51.076;7.950;2023-01-29T04:01:55;98173.78;;;-6.68;100.00
55032;BME280;40928;51.076;7.950;2023-01-29T04:04:26;98165.38;;;-6.72;100.00
55032;BME280;40928;51.076;7.950;2023-01-29T04:06:58;98160.03;;;-6.83;100.00
55032;BME280;40928;51.076;7.950;2023-01-29T04:09:35;98151.44;;;-6.84;100.00
55032;BME280;40928;51.076;7.950;2023-01-29T04:12:08;98161.50;;;-6.79;100.00
55032;BME280;40928;51.076;7.950;2023-01-29T04:14:37;98154.66;;;-6.80;100.00
55032;BME280;40928;51.076;7.950;2023-01-29T04:17:16;98158.31;;;-6.70;100.00
55032;BME280;40928;51.076;7.950;2023-01-29T04:19:50;98165.16;;;-6.69;100.00
55032;BME280;40928;51.076;7.950;2023-01-29T04:22:27;98155.28;;;-6.64;100.00
55032;BME280;40928;51.076;7.950;2023-01-29T04:24:56;98148.78;;;-6.56;100.00
55032;BME280;40928;51.076;7.950;2023-01-29T04:27:45;98153.75;;;-6.53;100.00
55032;BME280;40928;51.076;7.950;2023-01-29T04:30:33;98163.94;;;-6.50;100.00
55032;BME280;40928;51.076;7.950;2023-01-29T04:35:58;98151.47;;;-6.45;100.00
55032;BME280;40928;51.076;7.950;2023-01-29T04:41:21;98134.31;;;-6.35;100.00
55032;BME280;40928;51.076;7.950;2023-01-29T04:43:59;98131.91;;;-6.25;100.00
55032;BME280;40928;51.076;7.950;2023-01-29T04:54:29;98133.16;;;-6.31;100.00
55032;BME280;40928;51.076;7.950;2023-01-29T04:57:09;98141.91;;;-6.32;100.00
55032;BME280;40928;51.076;7.950;2023-01-29T04:59:42;98143.56;;;-6.31;100.00
55032;BME280;40928;51.076;7.950;2023-01-29T05:02:10;98128.19;;;-6.34;100.00
55032;BME280;40928;51.076;7.950;2023-01-29T05:04:38;98125.78;;;-6.37;100.00
55032;BME280;40928;51.076;7.950;2023-01-29T05:07:07;98114.78;;;-6.40;100.00
55032;BME280;40928;51.076;7.950;2023-01-29T05:09:36;98126.00;;;-6.40;100.00
55032;BME280;40928;51.076;7.950;2023-01-29T05:12:05;98126.94;;;-6.41;100.00
55032;BME280;40928;51.076;7.950;2023-01-29T05:14:33;98129.63;;;-6.43;100.00
55032;BME280;40928;51.076;7.950;2023-01-29T05:17:02;98121.84;;;-6.43;100.00
55032;BME280;40928;51.076;7.950;2023-01-29T05:19:29;98125.91;;;-6.38;100.00
55032;BME280;40928;51.076;7.950;2023-01-29T05:21:55;98129.09;;;-6.35;100.00
55032;BME280;40928;51.076;7.950;2023-01-29T05:24:23;98109.69;;;-6.42;100.00
55032;BME280;40928;51.076;7.950;2023-01-29T05:26:51;98100.22;;;-6.43;100.00
55032;BME280;40928;51.076;7.950;2023-01-29T05:29:35;98077.97;;;-6.47;100.00
55032;BME280;40928;51.076;7.950;2023-01-29T05:32:01;98061.84;;;-6.52;100.00
55032;BME280;40928;51.076;7.950;2023-01-29T05:34:27;98070.38;;;-6.50;100.00
55032;BME280;40928;51.076;7.950;2023-01-29T05:36:53;98063.53;;;-6.51;100.00
55032;BME280;40928;51.076;7.950;2023-01-29T05:39:18;98071.84;;;-6.46;100.00
55032;BME280;40928;51.076;7.950;2023-01-29T05:41:44;98054.69;;;-6.49;100.00
55032;BME280;40928;51.076;7.950;2023-01-29T05:44:09;98060.50;;;-6.45;100.00
55032;BME280;40928;51.076;7.950;2023-01-29T05:46:35;98066.84;;;-6.49;100.00
55032;BME280;40928;51.076;7.950;2023-01-29T05:49:01;98067.69;;;-6.49;100.00
55032;BME280;40928;51.076;7.950;2023-01-29T05:51:27;98060.94;;;-6.51;100.00
55032;BME280;40928;51.076;7.950;2023-01-29T05:53:52;98051.69;;;-6.55;100.00
55032;BME280;40928;51.076;7.950;2023-01-29T05:56:18;98051.06;;;-6.59;100.00
55032;BME280;40928;51.076;7.950;2023-01-29T05:58:44;98068.22;;;-6.56;100.00
55032;BME280;40928;51.076;7.950;2023-01-29T06:01:16;98075.56;;;-6.50;100.00
55032;BME280;40928;51.076;7.950;2023-01-29T06:03:42;98078.91;;;-6.48;100.00
55032;BME280;40928;51.076;7.950;2023-01-29T06:06:08;98082.44;;;-6.49;100.00
55032;BME280;40928;51.076;7.950;2023-01-29T06:08:33;98081.22;;;-6.56;100.00
55032;BME280;40928;51.076;7.950;2023-01-29T06:10:59;98091.59;;;-6.56;100.00
55032;BME280;40928;51.076;7.950;2023-01-29T06:13:25;98090.03;;;-6.59;100.00
55032;BME280;40928;51.076;7.950;2023-01-29T06:15:50;98091.81;;;-6.60;100.00
55032;BME280;40928;51.076;7.950;2023-01-29T06:18:16;98096.16;;;-6.60;100.00
55032;BME280;40928;51.076;7.950;2023-01-29T06:20:42;98103.13;;;-6.61;100.00
55032;BME280;40928;51.076;7.950;2023-01-29T06:23:07;98122.38;;;-6.63;100.00
55032;BME280;40928;51.076;7.950;2023-01-29T06:25:33;98133.97;;;-6.69;100.00
55032;BME280;40928;51.076;7.950;2023-01-29T06:27:59;98135.13;;;-6.73;100.00
55032;BME280;40928;51.076;7.950;2023-01-29T06:30:24;98141.06;;;-6.71;100.00
55032;BME280;40928;51.076;7.950;2023-01-29T06:32:50;98151.47;;;-6.71;100.00
55032;BME280;40928;51.076;7.950;2023-01-29T06:35:19;98152.16;;;-6.69;100.00
55032;BME280;40928;51.076;7.950;2023-01-29T06:37:44;98130.16;;;-6.63;100.00
55032;BME280;40928;51.076;7.950;2023-01-29T06:40:10;98135.97;;;-6.60;100.00
55032;BME280;40928;51.076;7.950;2023-01-29T06:42:36;98142.31;;;-6.51;100.00
55032;BME280;40928;51.076;7.950;2023-01-29T06:45:01;98141.81;;;-6.43;100.00
55032;BME280;40928;51.076;7.950;2023-01-29T06:47:27;98148.34;;;-6.37;100.00
55032;BME280;40928;51.076;7.950;2023-01-29T06:49:53;98149.41;;;-6.40;100.00
55032;BME280;40928;51.076;7.950;2023-01-29T06:52:18;98158.75;;;-6.37;100.00
55032;BME280;40928;51.076;7.950;2023-01-29T06:54:44;98157.50;;;-6.32;100.00
55032;BME280;40928;51.076;7.950;2023-01-29T06:57:09;98159.38;;;-6.34;100.00
55032;BME280;40928;51.076;7.950;2023-01-29T06:59:36;98146.38;;;-6.34;100.00
55032;BME280;40928;51.076;7.950;2023-01-29T07:02:02;98145.44;;;-6.33;100.00
55032;BME280;40928;51.076;7.950;2023-01-29T07:04:30;98135.66;;;-6.29;100.00
55032;BME280;40928;51.076;7.950;2023-01-29T07:06:58;98143.78;;;-6.21;100.00
55032;BME280;40928;51.076;7.950;2023-01-29T07:09:24;98138.56;;;-6.08;100.00
55032;BME280;40928;51.076;7.950;2023-01-29T07:11:50;98137.19;;;-6.01;100.00
55032;BME280;40928;51.076;7.950;2023-01-29T07:14:15;98137.47;;;-5.92;100.00
55032;BME280;40928;51.076;7.950;2023-01-29T07:16:41;98138.19;;;-5.90;100.00
55032;BME280;40928;51.076;7.950;2023-01-29T07:19:06;98149.09;;;-5.85;100.00
55032;BME280;40928;51.076;7.950;2023-01-29T07:21:33;98150.78;;;-5.84;100.00
55032;BME280;40928;51.076;7.950;2023-01-29T07:23:58;98153.69;;;-5.89;100.00
55032;BME280;40928;51.076;7.950;2023-01-29T07:26:24;98154.44;;;-5.87;100.00
55032;BME280;40928;51.076;7.950;2023-01-29T07:28:50;98149.94;;;-5.85;100.00
55032;BME280;40928;51.076;7.950;2023-01-29T07:31:16;98150.56;;;-5.81;100.00
55032;BME280;40928;51.076;7.950;2023-01-29T07:33:42;98154.72;;;-5.78;100.00
55032;BME280;40928;51.076;7.950;2023-01-29T07:36:09;98155.44;;;-5.76;100.00
55032;BME280;40928;51.076;7.950;2023-01-29T07:38:35;98153.22;;;-5.70;100.00
55032;BME280;40928;51.076;7.950;2023-01-29T07:41:00;98157.28;;;-5.66;100.00
55032;BME280;40928;51.076;7.950;2023-01-29T07:43:26;98149.03;;;-5.59;100.00
55032;BME280;40928;51.076;7.950;2023-01-29T07:45:51;98138.41;;;-5.56;100.00
55032;BME280;40928;51.076;7.950;2023-01-29T07:48:17;98148.41;;;-5.50;100.00
55032;BME280;40928;51.076;7.950;2023-01-29T07:50:43;98135.88;;;-5.45;100.00
55032;BME280;40928;51.076;7.950;2023-01-29T07:53:13;98127.50;;;-5.37;100.00
55032;BME280;40928;51.076;7.950;2023-01-29T07:55:39;98116.44;;;-5.28;100.00
55032;BME280;40928;51.076;7.950;2023-01-29T07:58:05;98126.53;;;-5.23;100.00
55032;BME280;40928;51.076;7.950;2023-01-29T08:00:31;98125.44;;;-5.21;100.00
55032;BME280;40928;51.076;7.950;2023-01-29T08:03:08;98126.81;;;-5.15;100.00
55032;BME280;40928;51.076;7.950;2023-01-29T08:05:35;98111.56;;;-5.08;100.00
55032;BME280;40928;51.076;7.950;2023-01-29T08:08:01;98092.81;;;-5.13;100.00
55032;BME280;40928;51.076;7.950;2023-01-29T08:10:27;98119.41;;;-4.97;100.00
55032;BME280;40928;51.076;7.950;2023-01-29T08:12:57;98129.25;;;-4.89;100.00
55032;BME280;40928;51.076;7.950;2023-01-29T08:15:24;98134.50;;;-4.78;100.00
55032;BME280;40928;51.076;7.950;2023-01-29T08:17:50;98130.38;;;-4.69;100.00
55032;BME280;40928;51.076;7.950;2023-01-29T08:20:16;98140.00;;;-4.58;100.00
55032;BME280;40928;51.076;7.950;2023-01-29T08:22:42;98134.22;;;-4.50;100.00
55032;BME280;40928;51.076;7.950;2023-01-29T08:25:07;98140.88;;;-4.35;100.00
55032;BME280;40928;51.076;7.950;2023-01-29T08:27:33;98134.59;;;-4.32;100.00
55032;BME280;40928;51.076;7.950;2023-01-29T08:29:59;98136.03;;;-4.28;100.00
55032;BME280;40928;51.076;7.950;2023-01-29T08:32:24;98129.63;;;-4.24;100.00
55032;BME280;40928;51.076;7.950;2023-01-29T08:34:50;98135.31;;;-4.19;100.00
55032;BME280;40928;51.076;7.950;2023-01-29T08:37:16;98136.16;;;-4.18;100.00
55032;BME280;40928;51.076;7.950;2023-01-29T08:39:41;98134.84;;;-4.13;100.00
55032;BME280;40928;51.076;7.950;2023-01-29T08:42:07;98126.66;;;-4.08;100.00
55032;BME280;40928;51.076;7.950;2023-01-29T08:44:32;98137.00;;;-4.06;100.00
55032;BME280;40928;51.076;7.950;2023-01-29T08:46:58;98131.06;;;-3.97;100.00
55032;BME280;40928;51.076;7.950;2023-01-29T08:49:24;98128.44;;;-3.97;100.00
55032;BME280;40928;51.076;7.950;2023-01-29T08:51:50;98128.56;;;-3.99;100.00
55032;BME280;40928;51.076;7.950;2023-01-29T08:54:16;98131.53;;;-3.92;100.00
55032;BME280;40928;51.076;7.950;2023-01-29T08:56:42;98140.75;;;-3.88;100.00
55032;BME280;40928;51.076;7.950;2023-01-29T08:59:11;98143.84;;;-3.83;100.00
55032;BME280;40928;51.076;7.950;2023-01-29T09:01:37;98145.16;;;-3.77;100.00
55032;BME280;40928;51.076;7.950;2023-01-29T09:04:02;98139.47;;;-3.71;100.00
55032;BME280;40928;51.076;7.950;2023-01-29T09:06:28;98127.84;;;-3.67;100.00
55032;BME280;40928;51.076;7.950;2023-01-29T09:08:54;98117.50;;;-3.68;100.00
55032;BME280;40928;51.076;7.950;2023-01-29T09:11:20;98104.22;;;-3.65;100.00
55032;BME280;40928;51.076;7.950;2023-01-29T09:13:46;98104.53;;;-3.58;100.00
55032;BME280;40928;51.076;7.950;2023-01-29T09:16:11;98104.16;;;-3.54;100.00
55032;BME280;40928;51.076;7.950;2023-01-29T09:18:37;98105.59;;;-3.49;100.00
55032;BME280;40928;51.076;7.950;2023-01-29T09:21:06;98103.19;;;-3.41;100.00
55032;BME280;40928;51.076;7.950;2023-01-29T09:23:32;98104.59;;;-3.37;100.00
55032;BME280;40928;51.076;7.950;2023-01-29T09:25:58;98097.09;;;-3.30;100.00
55032;BME280;40928;51.076;7.950;2023-01-29T09:28:25;98096.47;;;-3.23;100.00
55032;BME280;40928;51.076;7.950;2023-01-29T09:30:52;98098.38;;;-3.13;100.00
55032;BME280;40928;51.076;7.950;2023-01-29T09:33:17;98100.25;;;-3.15;100.00
55032;BME280;40928;51.076;7.950;2023-01-29T09:35:44;98094.97;;;-3.04;100.00
55032;BME280;40928;51.076;7.950;2023-01-29T09:38:12;98095.78;;;-3.03;100.00
55032;BME280;40928;51.076;7.950;2023-01-29T09:43:19;98076.56;;;-3.02;100.00
55032;BME280;40928;51.076;7.950;2023-01-29T09:46:00;98069.81;;;-3.05;100.00
55032;BME280;40928;51.076;7.950;2023-01-29T09:48:31;98067.19;;;-3.05;100.00
55032;BME280;40928;51.076;7.950;2023-01-29T09:50:59;98089.25;;;-2.98;100.00
55032;BME280;40928;51.076;7.950;2023-01-29T09:53:38;98088.03;;;-2.94;100.00
55032;BME280;40928;51.076;7.950;2023-01-29T09:56:11;98092.56;;;-2.96;100.00
55032;BME280;40928;51.076;7.950;2023-01-29T09:58:40;98088.81;;;-3.03;100.00
55032;BME280;40928;51.076;7.950;2023-01-29T10:01:31;98096.94;;;-3.17;100.00
55032;BME280;40928;51.076;7.950;2023-01-29T10:13:03;98088.03;;;-2.94;100.00
55032;BME280;40928;51.076;7.950;2023-01-29T10:26:30;98075.34;;;-3.19;100.00
55032;BME280;40928;51.076;7.950;2023-01-29T10:29:00;98081.03;;;-3.14;100.00
55032;BME280;40928;51.076;7.950;2023-01-29T10:31:32;98075.81;;;-3.26;100.00
55032;BME280;40928;51.076;7.950;2023-01-29T10:36:41;98093.81;;;-3.11;100.00
55032;BME280;40928;51.076;7.950;2023-01-29T10:58:46;98054.38;;;-2.66;100.00
55032;BME280;40928;51.076;7.950;2023-01-29T11:01:14;98045.88;;;-2.79;100.00
55032;BME280;40928;51.076;7.950;2023-01-29T11:03:40;98047.56;;;-2.78;100.00
55032;BME280;40928;51.076;7.950;2023-01-29T11:06:36;98028.31;;;-2.98;100.00
55032;BME280;40928;51.076;7.950;2023-01-29T11:11:57;98037.56;;;-3.15;100.00
55032;BME280;40928;51.076;7.950;2023-01-29T11:14:32;98028.50;;;-3.11;100.00
55032;BME280;40928;51.076;7.950;2023-01-29T11:17:01;98028.06;;;-3.16;100.00
55032;BME280;40928;51.076;7.950;2023-01-29T11:19:39;98016.91;;;-3.18;100.00
55032;BME280;40928;51.076;7.950;2023-01-29T11:24:37;98014.78;;;-3.03;100.00
55032;BME280;40928;51.076;7.950;2023-01-29T11:27:20;98001.06;;;-3.06;100.00
55032;BME280;40928;51.076;7.950;2023-01-29T11:29:48;97996.00;;;-2.97;100.00
55032;BME280;40928;51.076;7.950;2023-01-29T11:35:18;97976.09;;;-2.88;100.00
55032;BME280;40928;51.076;7.950;2023-01-29T11:37:45;97966.69;;;-2.70;100.00
55032;BME280;40928;51.076;7.950;2023-01-29T11:42:49;97976.94;;;-2.57;100.00
55032;BME280;40928;51.076;7.950;2023-01-29T11:45:27;97976.16;;;-2.48;100.00
55032;BME280;40928;51.076;7.950;2023-01-29T11:47:59;97963.06;;;-2.48;100.00
55032;BME280;40928;51.076;7.950;2023-01-29T11:50:28;97960.84;;;-2.52;100.00
55032;BME280;40928;51.076;7.950;2023-01-29T11:52:58;97947.06;;;-2.54;100.00
55032;BME280;40928;51.076;7.950;2023-01-29T11:55:33;97948.25;;;-2.68;100.00
55032;BME280;40928;51.076;7.950;2023-01-29T11:58:11;97950.25;;;-2.51;100.00
55032;BME280;40928;51.076;7.950;2023-01-29T12:00:39;97944.63;;;-2.46;100.00
55032;BME280;40928;51.076;7.950;2023-01-29T12:05:39;97942.75;;;-2.24;100.00
55032;BME280;40928;51.076;7.950;2023-01-29T12:08:17;97929.94;;;-2.18;100.00
55032;BME280;40928;51.076;7.950;2023-01-29T12:10:43;97936.31;;;-2.10;100.00
55032;BME280;40928;51.076;7.950;2023-01-29T12:15:38;97936.41;;;-2.22;100.00
55032;BME280;40928;51.076;7.950;2023-01-29T12:20:58;97922.81;;;-2.16;100.00
55032;BME280;40928;51.076;7.950;2023-01-29T12:26:18;97912.56;;;-2.28;100.00
55032;BME280;40928;51.076;7.950;2023-01-29T12:37:18;97908.91;;;-1.96;100.00
55032;BME280;40928;51.076;7.950;2023-01-29T12:39:47;97903.94;;;-2.00;100.00
55032;BME280;40928;51.076;7.950;2023-01-29T12:42:22;97897.88;;;-2.10;100.00
55032;BME280;40928;51.076;7.950;2023-01-29T12:45:00;97894.00;;;-2.25;100.00
55032;BME280;40928;51.076;7.950;2023-01-29T12:47:54;97893.16;;;-2.36;100.00
55032;BME280;40928;51.076;7.950;2023-01-29T12:56:25;97861.09;;;-2.28;100.00
55032;BME280;40928;51.076;7.950;2023-01-29T12:58:54;97858.06;;;-2.23;100.00
55032;BME280;40928;51.076;7.950;2023-01-29T13:01:27;97855.97;;;-2.30;100.00
55032;BME280;40928;51.076;7.950;2023-01-29T13:04:00;97847.44;;;-2.22;100.00
55032;BME280;40928;51.076;7.950;2023-01-29T13:06:39;97843.72;;;-2.09;100.00
55032;BME280;40928;51.076;7.950;2023-01-29T13:09:20;97825.81;;;-2.04;100.00
55032;BME280;40928;51.076;7.950;2023-01-29T13:12:14;97844.16;;;-1.94;100.00
55032;BME280;40928;51.076;7.950;2023-01-29T13:14:47;97824.59;;;-1.90;100.00
55032;BME280;40928;51.076;7.950;2023-01-29T13:17:25;97831.06;;;-1.85;100.00
55032;BME280;40928;51.076;7.950;2023-01-29T13:19:57;97828.97;;;-1.81;100.00
55032;BME280;40928;51.076;7.950;2023-01-29T13:22:28;97828.97;;;-1.91;100.00
55032;BME280;40928;51.076;7.950;2023-01-29T13:24:55;97818.38;;;-1.89;100.00
55032;BME280;40928;51.076;7.950;2023-01-29T13:27:25;97819.22;;;-1.99;100.00
55032;BME280;40928;51.076;7.950;2023-01-29T13:29:52;97819.34;;;-2.00;100.00
55032;BME280;40928;51.076;7.950;2023-01-29T13:32:27;97818.66;;;-1.92;100.00
55032;BME280;40928;51.076;7.950;2023-01-29T13:34:56;97809.44;;;-1.96;100.00
55032;BME280;40928;51.076;7.950;2023-01-29T13:37:32;97806.69;;;-1.95;100.00
55032;BME280;40928;51.076;7.950;2023-01-29T13:40:00;97802.41;;;-1.96;100.00
55032;BME280;40928;51.076;7.950;2023-01-29T13:42:43;97786.13;;;-1.80;100.00
55032;BME280;40928;51.076;7.950;2023-01-29T13:45:23;97783.63;;;-1.72;100.00
55032;BME280;40928;51.076;7.950;2023-01-29T13:47:50;97776.50;;;-1.79;100.00
55032;BME280;40928;51.076;7.950;2023-01-29T13:50:27;97773.03;;;-1.80;100.00
55032;BME280;40928;51.076;7.950;2023-01-29T13:52:56;97767.91;;;-1.72;100.00
55032;BME280;40928;51.076;7.950;2023-01-29T13:55:28;97763.66;;;-1.73;100.00
55032;BME280;40928;51.076;7.950;2023-01-29T13:57:59;97774.53;;;-1.77;100.00
55032;BME280;40928;51.076;7.950;2023-01-29T14:07:54;97786.84;;;-1.50;100.00
55032;BME280;40928;51.076;7.950;2023-01-29T14:10:22;97789.88;;;-1.45;100.00
55032;BME280;40928;51.076;7.950;2023-01-29T14:13:37;97779.84;;;-1.49;100.00
55032;BME280;40928;51.076;7.950;2023-01-29T14:15:37;97788.75;;;-1.42;100.00
55032;BME280;40928;51.076;7.950;2023-01-29T14:20:39;97780.78;;;-1.41;100.00
55032;BME280;40928;51.076;7.950;2023-01-29T14:23:06;97787.34;;;-1.36;100.00
55032;BME280;40928;51.076;7.950;2023-01-29T14:25:40;97781.31;;;-1.37;100.00
55032;BME280;40928;51.076;7.950;2023-01-29T14:28:14;97784.31;;;-1.32;100.00
55032;BME280;40928;51.076;7.950;2023-01-29T14:30:47;97779.91;;;-1.31;100.00
55032;BME280;40928;51.076;7.950;2023-01-29T14:33:35;97779.75;;;-1.30;100.00
55032;BME280;40928;51.076;7.950;2023-01-29T14:36:09;97766.31;;;-1.45;100.00
55032;BME280;40928;51.076;7.950;2023-01-29T14:38:36;97780.06;;;-1.33;100.00
55032;BME280;40928;51.076;7.950;2023-01-29T14:41:28;97783.72;;;-1.54;100.00
55032;BME280;40928;51.076;7.950;2023-01-29T14:46:58;97785.63;;;-1.46;100.00
55032;BME280;40928;51.076;7.950;2023-01-29T14:50:37;97793.75;;;-1.49;100.00
55032;BME280;40928;51.076;7.950;2023-01-29T14:52:41;97781.09;;;-1.54;100.00
55032;BME280;40928;51.076;7.950;2023-01-29T14:55:23;97781.28;;;-1.65;100.00
55032;BME280;40928;51.076;7.950;2023-01-29T14:57:51;97782.78;;;-1.62;100.00
55032;BME280;40928;51.076;7.950;2023-01-29T15:02:54;97794.75;;;-1.60;100.00
55032;BME280;40928;51.076;7.950;2023-01-29T15:05:27;97793.22;;;-1.52;100.00
55032;BME280;40928;51.076;7.950;2023-01-29T15:08:02;97787.28;;;-1.55;100.00
55032;BME280;40928;51.076;7.950;2023-01-29T15:12:58;97789.63;;;-1.51;100.00
55032;BME280;40928;51.076;7.950;2023-01-29T15:15:43;97771.84;;;-1.58;100.00
55032;BME280;40928;51.076;7.950;2023-01-29T15:18:21;97794.28;;;-1.45;100.00
55032;BME280;40928;51.076;7.950;2023-01-29T15:21:00;97794.69;;;-1.40;100.00
55032;BME280;40928;51.076;7.950;2023-01-29T15:23:28;97792.88;;;-1.40;100.00
55032;BME280;40928;51.076;7.950;2023-01-29T15:26:29;97786.53;;;-1.37;100.00